sensor_id;sensor_type;location;lat;lon;timestamp;temperature;humidity
37974;DHT22;23796;51.458;7.000;2023-01-05T00:01:55;11.80;99.90
37974;DHT22;23796;51.458;7.000;2023-01-05T00:04:23;11.80;99.90
37974;DHT22;23796;51.458;7.000;2023-01-05T00:06:49;11.80;99.90
37974;DHT22;23796;51.458;7.000;2023-01-05T00:09:17;11.80;99.90
37974;DHT22;23796;51.458;7.000;2023-01-05T00:11:43;11.80;99.90
37974;DHT22;23796;51.458;7.000;2023-01-05T00:14:29;11.80;99.90
37974;DHT22;23796;51.458;7.000;2023-01-05T00:17:17;11.70;99.90
37974;DHT22;23796;51.458;7.000;2023-01-05T00:20:02;11.70;99.90
37974;DHT22;23796;51.458;7.000;2023-01-05T00:22:51;11.70;99.90
37974;DHT22;23796;51.458;7.000;2023-01-05T00:25:25;11.70;99.90
37974;DHT22;23796;51.458;7.000;2023-01-05T00:27:52;11.70;99.90
37974;DHT22;23796;51.458;7.000;2023-01-05T00:30:44;11.70;99.90
37974;DHT22;23796;51.458;7.000;2023-01-05T00:33:14;11.70;99.90
37974;DHT22;23796;51.458;7.000;2023-01-05T00:35:39;11.70;99.90
37974;DHT22;23796;51.458;7.000;2023-01-05T00:38:06;11.70;99.90
37974;DHT22;23796;51.458;7.000;2023-01-05T00:40:33;11.70;99.90
37974;DHT22;23796;51.458;7.000;2023-01-05T00:43:04;11.70;99.90
37974;DHT22;23796;51.458;7.000;2023-01-05T00:45:30;11.70;99.90
37974;DHT22;23796;51.458;7.000;2023-01-05T00:47:55;11.60;99.90
37974;DHT22;23796;51.458;7.000;2023-01-05T00:50:21;11.60;99.90
37974;DHT22;23796;51.458;7.000;2023-01-05T00:52:47;11.60;99.90
37974;DHT22;23796;51.458;7.000;2023-01-05T00:55:14;11.60;99.90
37974;DHT22;23796;51.458;7.000;2023-01-05T00:57:42;11.60;99.90
37974;DHT22;23796;51.458;7.000;2023-01-05T01:00:12;11.60;99.90
37974;DHT22;23796;51.458;7.000;2023-01-05T01:02:42;11.60;99.90
37974;DHT22;23796;51.458;7.000;2023-01-05T01:05:09;11.60;99.90
37974;DHT22;23796;51.458;7.000;2023-01-05T01:07:34;11.50;99.90
37974;DHT22;23796;51.458;7.000;2023-01-05T01:10:00;11.60;99.90
37974;DHT22;23796;51.458;7.000;2023-01-05T01:12:28;11.60;99.90
37974;DHT22;23796;51.458;7.000;2023-01-05T01:14:55;11.60;99.90
37974;DHT22;23796;51.458;7.000;2023-01-05T01:17:21;11.60;99.90
37974;DHT22;23796;51.458;7.000;2023-01-05T01:19:47;11.60;99.90
37974;DHT22;23796;51.458;7.000;2023-01-05T01:22:15;11.60;99.90
37974;DHT22;23796;51.458;7.000;2023-01-05T01:24:40;11.60;99.90
37974;DHT22;23796;51.458;7.000;2023-01-05T01:27:08;11.60;99.90
37974;DHT22;23796;51.458;7.000;2023-01-05T01:29:36;11.60;99.90
37974;DHT22;23796;51.458;7.000;2023-01-05T01:32:02;11.60;99.90
37974;DHT22;23796;51.458;7.000;2023-01-05T01:34:30;11.60;99.90
37974;DHT22;23796;51.458;7.000;2023-01-05T01:37:00;11.60;99.90
37974;DHT22;23796;51.458;7.000;2023-01-05T01:39:29;11.70;99.90
37974;DHT22;23796;51.458;7.000;2023-01-05T01:41:54;11.70;99.90
37974;DHT22;23796;51.458;7.000;2023-01-05T01:44:55;11.70;99.90
37974;DHT22;23796;51.458;7.000;2023-01-05T01:47:28;11.60;99.90
37974;DHT22;23796;51.458;7.000;2023-01-05T01:49:57;11.50;99.90
37974;DHT22;23796;51.458;7.000;2023-01-05T01:52:29;11.60;99.90
37974;DHT22;23796;51.458;7.000;2023-01-05T01:54:56;11.50;99.90
37974;DHT22;23796;51.458;7.000;2023-01-05T01:57:25;11.50;99.90
37974;DHT22;23796;51.458;7.000;2023-01-05T01:59:52;11.40;99.90
37974;DHT22;23796;51.458;7.000;2023-01-05T02:02:20;11.40;99.90
37974;DHT22;23796;51.458;7.000;2023-01-05T02:04:47;11.40;99.90
37974;DHT22;23796;51.458;7.000;2023-01-05T02:07:15;11.40;99.90
37974;DHT22;23796;51.458;7.000;2023-01-05T02:09:41;11.50;99.90
37974;DHT22;23796;51.458;7.000;2023-01-05T02:12:37;11.50;99.90
37974;DHT22;23796;51.458;7.000;2023-01-05T02:15:10;11.40;99.90
37974;DHT22;23796;51.458;7.000;2023-01-05T02:18:13;11.40;99.90
37974;DHT22;23796;51.458;7.000;2023-01-05T02:32:12;11.20;99.90
37974;DHT22;23796;51.458;7.000;2023-01-05T02:39:48;11.20;99.90
37974;DHT22;23796;51.458;7.000;2023-01-05T02:42:26;11.20;99.90
37974;DHT22;23796;51.458;7.000;2023-01-05T02:44:52;11.20;99.90
37974;DHT22;23796;51.458;7.000;2023-01-05T02:55:16;11.10;99.90
37974;DHT22;23796;51.458;7.000;2023-01-05T02:58:00;11.10;99.90
37974;DHT22;23796;51.458;7.000;2023-01-05T03:00:37;11.10;99.90
37974;DHT22;23796;51.458;7.000;2023-01-05T03:03:18;11.10;99.90
37974;DHT22;23796;51.458;7.000;2023-01-05T03:05:54;11.10;99.90
37974;DHT22;23796;51.458;7.000;2023-01-05T03:08:22;11.00;99.90
37974;DHT22;23796;51.458;7.000;2023-01-05T03:11:10;11.00;99.90
37974;DHT22;23796;51.458;7.000;2023-01-05T03:14:22;11.00;99.90
37974;DHT22;23796;51.458;7.000;2023-01-05T03:16:53;11.00;99.90
37974;DHT22;23796;51.458;7.000;2023-01-05T03:19:23;11.00;99.90
37974;DHT22;23796;51.458;7.000;2023-01-05T03:22:15;11.00;99.90
37974;DHT22;23796;51.458;7.000;2023-01-05T03:25:00;11.00;99.90
37974;DHT22;23796;51.458;7.000;2023-01-05T03:27:46;11.00;99.90
37974;DHT22;23796;51.458;7.000;2023-01-05T03:30:51;11.00;99.90
37974;DHT22;23796;51.458;7.000;2023-01-05T03:36:58;11.00;99.90
37974;DHT22;23796;51.458;7.000;2023-01-05T03:39:30;11.00;99.90
37974;DHT22;23796;51.458;7.000;2023-01-05T03:41:57;11.00;99.90
37974;DHT22;23796;51.458;7.000;2023-01-05T03:44:23;11.00;99.90
37974;DHT22;23796;51.458;7.000;2023-01-05T03:46:50;10.90;99.90
37974;DHT22;23796;51.458;7.000;2023-01-05T03:49:15;10.90;99.90
37974;DHT22;23796;51.458;7.000;2023-01-05T03:51:42;11.00;99.90
37974;DHT22;23796;51.458;7.000;2023-01-05T03:54:08;11.00;99.90
37974;DHT22;23796;51.458;7.000;2023-01-05T03:56:36;11.00;99.90
37974;DHT22;23796;51.458;7.000;2023-01-05T03:59:02;11.00;99.90
37974;DHT22;23796;51.458;7.000;2023-01-05T04:01:30;11.00;99.90
37974;DHT22;23796;51.458;7.000;2023-01-05T04:03:58;11.00;99.90
37974;DHT22;23796;51.458;7.000;2023-01-05T04:06:23;11.00;99.90
37974;DHT22;23796;51.458;7.000;2023-01-05T04:08:51;11.00;99.90
37974;DHT22;23796;51.458;7.000;2023-01-05T04:11:19;11.00;99.90
37974;DHT22;23796;51.458;7.000;2023-01-05T04:13:45;11.00;99.90
37974;DHT22;23796;51.458;7.000;2023-01-05T04:16:11;11.00;99.90
37974;DHT22;23796;51.458;7.000;2023-01-05T04:18:41;11.00;99.90
37974;DHT22;23796;51.458;7.000;2023-01-05T04:21:10;11.00;99.90
37974;DHT22;23796;51.458;7.000;2023-01-05T04:23:35;11.00;99.90
37974;DHT22;23796;51.458;7.000;2023-01-05T04:26:01;11.00;99.90
37974;DHT22;23796;51.458;7.000;2023-01-05T04:28:27;11.00;99.90
37974;DHT22;23796;51.458;7.000;2023-01-05T04:30:56;10.90;99.90
37974;DHT22;23796;51.458;7.000;2023-01-05T04:33:22;11.00;99.90
37974;DHT22;23796;51.458;7.000;2023-01-05T04:35:51;11.00;99.90
37974;DHT22;23796;51.458;7.000;2023-01-05T04:38:17;11.00;99.90
37974;DHT22;23796;51.458;7.000;2023-01-05T04:40:47;11.00;99.90
37974;DHT22;23796;51.458;7.000;2023-01-05T04:43:13;11.00;99.90
37974;DHT22;23796;51.458;7.000;2023-01-05T04:45:39;11.00;99.90
37974;DHT22;23796;51.458;7.000;2023-01-05T04:48:07;11.00;99.90
37974;DHT22;23796;51.458;7.000;2023-01-05T04:50:38;11.10;99.90
37974;DHT22;23796;51.458;7.000;2023-01-05T04:53:06;11.10;99.90
37974;DHT22;23796;51.458;7.000;2023-01-05T04:55:31;11.00;99.90
37974;DHT22;23796;51.458;7.000;2023-01-05T04:57:59;10.90;99.90
37974;DHT22;23796;51.458;7.000;2023-01-05T05:00:25;10.90;99.90
37974;DHT22;23796;51.458;7.000;2023-01-05T05:02:55;10.90;99.90
37974;DHT22;23796;51.458;7.000;2023-01-05T05:05:21;10.90;99.90
37974;DHT22;23796;51.458;7.000;2023-01-05T05:07:49;10.80;99.90
37974;DHT22;23796;51.458;7.000;2023-01-05T05:10:14;10.90;99.90
37974;DHT22;23796;51.458;7.000;2023-01-05T05:12:42;10.90;99.90
37974;DHT22;23796;51.458;7.000;2023-01-05T05:15:08;10.90;99.90
37974;DHT22;23796;51.458;7.000;2023-01-05T05:17:34;10.80;99.90
37974;DHT22;23796;51.458;7.000;2023-01-05T05:20:00;10.70;99.90
37974;DHT22;23796;51.458;7.000;2023-01-05T05:22:25;10.70;99.90
37974;DHT22;23796;51.458;7.000;2023-01-05T05:24:52;10.70;99.90
37974;DHT22;23796;51.458;7.000;2023-01-05T05:27:21;10.70;99.90
37974;DHT22;23796;51.458;7.000;2023-01-05T05:29:47;10.60;99.90
37974;DHT22;23796;51.458;7.000;2023-01-05T05:32:15;10.60;99.90
37974;DHT22;23796;51.458;7.000;2023-01-05T05:34:40;10.70;99.90
37974;DHT22;23796;51.458;7.000;2023-01-05T05:37:06;10.70;99.90
37974;DHT22;23796;51.458;7.000;2023-01-05T05:39:34;10.60;99.90
37974;DHT22;23796;51.458;7.000;2023-01-05T05:41:59;10.70;99.90
37974;DHT22;23796;51.458;7.000;2023-01-05T05:44:25;10.70;99.90
37974;DHT22;23796;51.458;7.000;2023-01-05T05:46:50;10.70;99.90
37974;DHT22;23796;51.458;7.000;2023-01-05T05:49:18;10.80;99.90
37974;DHT22;23796;51.458;7.000;2023-01-05T05:51:44;10.70;99.90
37974;DHT22;23796;51.458;7.000;2023-01-05T05:54:12;10.70;99.90
37974;DHT22;23796;51.458;7.000;2023-01-05T05:56:40;10.70;99.90
37974;DHT22;23796;51.458;7.000;2023-01-05T05:59:08;10.70;99.90
37974;DHT22;23796;51.458;7.000;2023-01-05T06:01:34;10.70;99.90
37974;DHT22;23796;51.458;7.000;2023-01-05T06:04:01;10.60;99.90
37974;DHT22;23796;51.458;7.000;2023-01-05T06:06:27;10.60;99.90
37974;DHT22;23796;51.458;7.000;2023-01-05T06:08:53;10.70;99.90
37974;DHT22;23796;51.458;7.000;2023-01-05T06:11:19;10.70;99.90
37974;DHT22;23796;51.458;7.000;2023-01-05T06:13:45;10.70;99.90
37974;DHT22;23796;51.458;7.000;2023-01-05T06:16:10;10.70;99.90
37974;DHT22;23796;51.458;7.000;2023-01-05T06:18:36;10.70;99.90
37974;DHT22;23796;51.458;7.000;2023-01-05T06:21:01;10.70;99.90
37974;DHT22;23796;51.458;7.000;2023-01-05T06:23:27;10.70;99.90
37974;DHT22;23796;51.458;7.000;2023-01-05T06:25:53;10.70;99.90
37974;DHT22;23796;51.458;7.000;2023-01-05T06:28:18;10.70;99.90
37974;DHT22;23796;51.458;7.000;2023-01-05T06:30:46;10.60;99.90
37974;DHT22;23796;51.458;7.000;2023-01-05T06:33:12;10.50;99.90
37974;DHT22;23796;51.458;7.000;2023-01-05T06:35:37;10.50;99.90
37974;DHT22;23796;51.458;7.000;2023-01-05T06:38:05;10.50;99.90
37974;DHT22;23796;51.458;7.000;2023-01-05T06:40:33;10.60;99.90
37974;DHT22;23796;51.458;7.000;2023-01-05T06:43:01;10.60;99.90
37974;DHT22;23796;51.458;7.000;2023-01-05T06:45:29;10.50;99.90
37974;DHT22;23796;51.458;7.000;2023-01-05T06:47:54;10.50;99.90
37974;DHT22;23796;51.458;7.000;2023-01-05T06:50:25;10.50;99.90
37974;DHT22;23796;51.458;7.000;2023-01-05T06:55:16;10.50;99.90
37974;DHT22;23796;51.458;7.000;2023-01-05T06:57:46;10.50;99.90
37974;DHT22;23796;51.458;7.000;2023-01-05T07:00:15;10.40;99.90
37974;DHT22;23796;51.458;7.000;2023-01-05T07:02:40;10.40;99.90
37974;DHT22;23796;51.458;7.000;2023-01-05T07:05:07;10.40;99.90
37974;DHT22;23796;51.458;7.000;2023-01-05T07:07:35;10.30;99.90
37974;DHT22;23796;51.458;7.000;2023-01-05T07:10:04;10.30;99.90
37974;DHT22;23796;51.458;7.000;2023-01-05T07:12:30;10.30;99.90
37974;DHT22;23796;51.458;7.000;2023-01-05T07:14:55;10.40;99.90
37974;DHT22;23796;51.458;7.000;2023-01-05T07:17:21;10.40;99.90
37974;DHT22;23796;51.458;7.000;2023-01-05T07:19:49;10.30;99.90
37974;DHT22;23796;51.458;7.000;2023-01-05T07:22:17;10.40;99.90
37974;DHT22;23796;51.458;7.000;2023-01-05T07:24:42;10.50;99.90
37974;DHT22;23796;51.458;7.000;2023-01-05T07:27:10;10.50;99.90
37974;DHT22;23796;51.458;7.000;2023-01-05T07:29:40;10.50;99.90
37974;DHT22;23796;51.458;7.000;2023-01-05T07:32:06;10.50;99.90
37974;DHT22;23796;51.458;7.000;2023-01-05T07:34:32;10.50;99.90
37974;DHT22;23796;51.458;7.000;2023-01-05T07:37:00;10.50;99.90
37974;DHT22;23796;51.458;7.000;2023-01-05T07:39:25;10.60;99.90
37974;DHT22;23796;51.458;7.000;2023-01-05T07:41:51;10.70;99.90
37974;DHT22;23796;51.458;7.000;2023-01-05T07:44:21;10.60;99.90
37974;DHT22;23796;51.458;7.000;2023-01-05T07:46:47;10.60;99.90
37974;DHT22;23796;51.458;7.000;2023-01-05T07:49:17;10.60;99.90
37974;DHT22;23796;51.458;7.000;2023-01-05T07:51:45;10.50;99.90
37974;DHT22;23796;51.458;7.000;2023-01-05T07:54:10;10.60;99.90
37974;DHT22;23796;51.458;7.000;2023-01-05T07:56:36;10.60;99.90
37974;DHT22;23796;51.458;7.000;2023-01-05T07:59:01;10.70;99.90
37974;DHT22;23796;51.458;7.000;2023-01-05T08:01:27;10.70;99.90
37974;DHT22;23796;51.458;7.000;2023-01-05T08:03:55;10.70;99.90
37974;DHT22;23796;51.458;7.000;2023-01-05T08:06:25;10.70;99.90
37974;DHT22;23796;51.458;7.000;2023-01-05T08:08:54;10.60;99.90
37974;DHT22;23796;51.458;7.000;2023-01-05T08:11:20;10.50;99.90
37974;DHT22;23796;51.458;7.000;2023-01-05T08:13:47;10.60;99.90
37974;DHT22;23796;51.458;7.000;2023-01-05T08:16:32;10.50;99.90
37974;DHT22;23796;51.458;7.000;2023-01-05T08:19:00;10.50;99.90
37974;DHT22;23796;51.458;7.000;2023-01-05T08:21:27;10.60;99.90
37974;DHT22;23796;51.458;7.000;2023-01-05T08:23:52;10.60;99.90
37974;DHT22;23796;51.458;7.000;2023-01-05T08:26:22;10.60;99.90
37974;DHT22;23796;51.458;7.000;2023-01-05T08:28:51;10.70;99.90
37974;DHT22;23796;51.458;7.000;2023-01-05T08:31:24;10.70;99.90
37974;DHT22;23796;51.458;7.000;2023-01-05T08:33:53;10.60;99.90
37974;DHT22;23796;51.458;7.000;2023-01-05T08:36:22;10.70;99.90
37974;DHT22;23796;51.458;7.000;2023-01-05T08:38:52;10.70;99.90
37974;DHT22;23796;51.458;7.000;2023-01-05T08:41:21;10.70;99.90
37974;DHT22;23796;51.458;7.000;2023-01-05T08:43:54;10.70;99.90
37974;DHT22;23796;51.458;7.000;2023-01-05T08:46:23;10.70;99.90
37974;DHT22;23796;51.458;7.000;2023-01-05T08:48:50;10.70;99.90
37974;DHT22;23796;51.458;7.000;2023-01-05T08:51:17;10.80;99.90
37974;DHT22;23796;51.458;7.000;2023-01-05T08:53:43;10.80;99.90
37974;DHT22;23796;51.458;7.000;2023-01-05T08:56:12;10.80;99.90
37974;DHT22;23796;51.458;7.000;2023-01-05T08:58:38;10.90;99.90
37974;DHT22;23796;51.458;7.000;2023-01-05T09:01:14;10.90;99.90
37974;DHT22;23796;51.458;7.000;2023-01-05T09:03:41;10.90;99.90
37974;DHT22;23796;51.458;7.000;2023-01-05T09:06:09;10.90;99.90
37974;DHT22;23796;51.458;7.000;2023-01-05T09:08:37;11.00;99.90
37974;DHT22;23796;51.458;7.000;2023-01-05T09:11:11;11.10;99.90
37974;DHT22;23796;51.458;7.000;2023-01-05T09:13:48;11.10;99.90
37974;DHT22;23796;51.458;7.000;2023-01-05T09:16:17;11.20;99.90
37974;DHT22;23796;51.458;7.000;2023-01-05T09:18:44;11.20;99.90
37974;DHT22;23796;51.458;7.000;2023-01-05T09:21:12;11.20;99.90
37974;DHT22;23796;51.458;7.000;2023-01-05T09:23:41;11.10;99.90
37974;DHT22;23796;51.458;7.000;2023-01-05T09:26:09;11.20;99.90
37974;DHT22;23796;51.458;7.000;2023-01-05T09:28:35;11.20;99.90
37974;DHT22;23796;51.458;7.000;2023-01-05T09:33:42;11.30;99.90
37974;DHT22;23796;51.458;7.000;2023-01-05T09:36:11;11.30;99.90
37974;DHT22;23796;51.458;7.000;2023-01-05T09:38:40;11.30;99.90
37974;DHT22;23796;51.458;7.000;2023-01-05T09:43:56;11.20;99.90
37974;DHT22;23796;51.458;7.000;2023-01-05T09:46:32;11.20;99.90
37974;DHT22;23796;51.458;7.000;2023-01-05T09:49:03;11.20;99.90
37974;DHT22;23796;51.458;7.000;2023-01-05T09:51:31;11.20;99.90
37974;DHT22;23796;51.458;7.000;2023-01-05T09:53:58;11.20;99.90
37974;DHT22;23796;51.458;7.000;2023-01-05T09:56:36;11.40;99.90
37974;DHT22;23796;51.458;7.000;2023-01-05T10:01:37;11.40;99.90
37974;DHT22;23796;51.458;7.000;2023-01-05T10:04:13;11.30;99.90
37974;DHT22;23796;51.458;7.000;2023-01-05T10:06:45;11.30;99.90
37974;DHT22;23796;51.458;7.000;2023-01-05T10:09:22;11.30;99.90
37974;DHT22;23796;51.458;7.000;2023-01-05T10:11:54;11.20;99.90
37974;DHT22;23796;51.458;7.000;2023-01-05T10:14:51;11.10;99.90
37974;DHT22;23796;51.458;7.000;2023-01-05T10:17:20;11.20;99.90
37974;DHT22;23796;51.458;7.000;2023-01-05T10:19:48;11.20;99.90
37974;DHT22;23796;51.458;7.000;2023-01-05T10:27:52;11.30;99.90
37974;DHT22;23796;51.458;7.000;2023-01-05T10:46:41;11.30;99.90
37974;DHT22;23796;51.458;7.000;2023-01-05T10:49:20;11.30;99.90
37974;DHT22;23796;51.458;7.000;2023-01-05T10:51:48;11.30;99.90
37974;DHT22;23796;51.458;7.000;2023-01-05T10:57:36;11.40;99.90
37974;DHT22;23796;51.458;7.000;2023-01-05T11:00:14;11.40;99.90
37974;DHT22;23796;51.458;7.000;2023-01-05T11:02:59;11.50;99.90
37974;DHT22;23796;51.458;7.000;2023-01-05T11:05:33;11.60;99.90
37974;DHT22;23796;51.458;7.000;2023-01-05T11:08:01;11.60;99.90
37974;DHT22;23796;51.458;7.000;2023-01-05T11:11:32;11.50;99.90
37974;DHT22;23796;51.458;7.000;2023-01-05T11:13:41;11.60;99.90
37974;DHT22;23796;51.458;7.000;2023-01-05T11:23:47;11.70;99.90
37974;DHT22;23796;51.458;7.000;2023-01-05T11:26:34;11.80;99.90
37974;DHT22;23796;51.458;7.000;2023-01-05T11:31:39;11.70;99.90
37974;DHT22;23796;51.458;7.000;2023-01-05T11:36:53;11.70;99.90
37974;DHT22;23796;51.458;7.000;2023-01-05T11:39:29;11.70;99.90
37974;DHT22;23796;51.458;7.000;2023-01-05T11:44:37;11.70;99.90
37974;DHT22;23796;51.458;7.000;2023-01-05T11:47:05;11.60;99.90
37974;DHT22;23796;51.458;7.000;2023-01-05T11:49:31;11.70;99.90
37974;DHT22;23796;51.458;7.000;2023-01-05T11:51:57;11.80;99.90
37974;DHT22;23796;51.458;7.000;2023-01-05T11:54:42;11.90;99.90
37974;DHT22;23796;51.458;7.000;2023-01-05T11:57:18;12.00;99.90
37974;DHT22;23796;51.458;7.000;2023-01-05T11:59:47;11.90;99.90
37974;DHT22;23796;51.458;7.000;2023-01-05T12:05:54;12.00;99.90
37974;DHT22;23796;51.458;7.000;2023-01-05T12:09:13;12.00;99.90
37974;DHT22;23796;51.458;7.000;2023-01-05T12:11:20;11.90;99.90
37974;DHT22;23796;51.458;7.000;2023-01-05T12:14:26;11.90;99.90
37974;DHT22;23796;51.458;7.000;2023-01-05T12:16:52;11.90;99.90
37974;DHT22;23796;51.458;7.000;2023-01-05T12:22:34;12.00;99.90
37974;DHT22;23796;51.458;7.000;2023-01-05T12:30:14;11.90;99.90
37974;DHT22;23796;51.458;7.000;2023-01-05T12:49:00;11.90;99.90
37974;DHT22;23796;51.458;7.000;2023-01-05T12:51:43;11.90;99.90
37974;DHT22;23796;51.458;7.000;2023-01-05T12:57:00;12.10;99.90
37974;DHT22;23796;51.458;7.000;2023-01-05T13:09:59;12.20;99.90
37974;DHT22;23796;51.458;7.000;2023-01-05T13:12:28;12.20;99.90
37974;DHT22;23796;51.458;7.000;2023-01-05T13:17:40;12.30;99.90
37974;DHT22;23796;51.458;7.000;2023-01-05T13:23:18;12.50;99.90
37974;DHT22;23796;51.458;7.000;2023-01-05T13:25:50;12.60;99.90
37974;DHT22;23796;51.458;7.000;2023-01-05T13:28:21;12.60;99.90
37974;DHT22;23796;51.458;7.000;2023-01-05T13:36:37;12.60;99.90
37974;DHT22;23796;51.458;7.000;2023-01-05T13:48:19;12.60;99.90
37974;DHT22;23796;51.458;7.000;2023-01-05T13:53:47;12.40;99.90
37974;DHT22;23796;51.458;7.000;2023-01-05T13:56:21;12.30;99.90
37974;DHT22;23796;51.458;7.000;2023-01-05T14:01:43;12.30;99.90
37974;DHT22;23796;51.458;7.000;2023-01-05T14:04:31;12.10;99.90
37974;DHT22;23796;51.458;7.000;2023-01-05T14:07:04;12.10;99.90
37974;DHT22;23796;51.458;7.000;2023-01-05T14:09:46;12.00;99.90
37974;DHT22;23796;51.458;7.000;2023-01-05T14:20:38;12.10;99.90
37974;DHT22;23796;51.458;7.000;2023-01-05T14:26:07;11.90;99.90
37974;DHT22;23796;51.458;7.000;2023-01-05T14:36:32;11.70;99.90
37974;DHT22;23796;51.458;7.000;2023-01-05T14:39:04;11.70;99.90
37974;DHT22;23796;51.458;7.000;2023-01-05T14:41:31;11.70;99.90
37974;DHT22;23796;51.458;7.000;2023-01-05T14:44:01;11.70;99.90
37974;DHT22;23796;51.458;7.000;2023-01-05T14:46:52;11.70;99.90
37974;DHT22;23796;51.458;7.000;2023-01-05T14:49:37;11.70;99.90
37974;DHT22;23796;51.458;7.000;2023-01-05T14:52:05;11.70;99.90
37974;DHT22;23796;51.458;7.000;2023-01-05T15:03:04;12.00;99.90
37974;DHT22;23796;51.458;7.000;2023-01-05T15:05:30;12.00;99.90
37974;DHT22;23796;51.458;7.000;2023-01-05T15:11:17;12.00;99.90
37974;DHT22;23796;51.458;7.000;2023-01-05T15:14:20;12.10;99.90
37974;DHT22;23796;51.458;7.000;2023-01-05T15:23:10;12.00;99.90
37974;DHT22;23796;51.458;7.000;2023-01-05T15:25:56;12.10;99.90
37974;DHT22;23796;51.458;7.000;2023-01-05T15:31:34;12.00;99.90
37974;DHT22;23796;51.458;7.000;2023-01-05T15:34:10;11.90;99.90
37974;DHT22;23796;51.458;7.000;2023-01-05T15:42:37;11.80;99.90
37974;DHT22;23796;51.458;7.000;2023-01-05T15:45:13;11.80;99.90
37974;DHT22;23796;51.458;7.000;2023-01-05T15:47:40;11.80;99.90
37974;DHT22;23796;51.458;7.000;2023-01-05T15:55:54;11.80;99.90
37974;DHT22;23796;51.458;7.000;2023-01-05T15:58:23;11.70;99.90
37974;DHT22;23796;51.458;7.000;2023-01-05T16:01:12;11.80;99.90
37974;DHT22;23796;51.458;7.000;2023-01-05T16:03:44;11.80;99.90
37974;DHT22;23796;51.458;7.000;2023-01-05T16:09:48;11.70;99.90
37974;DHT22;23796;51.458;7.000;2023-01-05T16:12:23;11.70;99.90
37974;DHT22;23796;51.458;7.000;2023-01-05T16:15:00;11.60;99.90
37974;DHT22;23796;51.458;7.000;2023-01-05T16:17:31;11.50;99.90
37974;DHT22;23796;51.458;7.000;2023-01-05T16:20:03;11.50;99.90
37974;DHT22;23796;51.458;7.000;2023-01-05T16:22:48;11.50;99.90
37974;DHT22;23796;51.458;7.000;2023-01-05T16:25:28;11.50;99.90
37974;DHT22;23796;51.458;7.000;2023-01-05T16:28:04;11.50;99.90
37974;DHT22;23796;51.458;7.000;2023-01-05T16:30:40;11.50;99.90
37974;DHT22;23796;51.458;7.000;2023-01-05T16:39:22;11.40;99.90
37974;DHT22;23796;51.458;7.000;2023-01-05T16:41:48;11.50;99.90
37974;DHT22;23796;51.458;7.000;2023-01-05T17:01:16;11.40;99.90
37974;DHT22;23796;51.458;7.000;2023-01-05T17:17:43;11.00;99.90
37974;DHT22;23796;51.458;7.000;2023-01-05T17:21:16;11.10;99.90
37974;DHT22;23796;51.458;7.000;2023-01-05T17:24:12;11.20;99.90
37974;DHT22;23796;51.458;7.000;2023-01-05T17:40:58;11.20;99.90
37974;DHT22;23796;51.458;7.000;2023-01-05T17:43:47;11.20;99.90
37974;DHT22;23796;51.458;7.000;2023-01-05T17:46:40;11.30;99.90
37974;DHT22;23796;51.458;7.000;2023-01-05T17:49:29;11.30;99.90
37974;DHT22;23796;51.458;7.000;2023-01-05T17:52:05;11.20;99.90
37974;DHT22;23796;51.458;7.000;2023-01-05T17:54:36;11.20;99.90
37974;DHT22;23796;51.458;7.000;2023-01-05T17:57:04;11.20;99.90
37974;DHT22;23796;51.458;7.000;2023-01-05T17:59:30;11.30;99.90
37974;DHT22;23796;51.458;7.000;2023-01-05T18:01:56;11.30;99.90
37974;DHT22;23796;51.458;7.000;2023-01-05T18:04:21;11.20;99.90
37974;DHT22;23796;51.458;7.000;2023-01-05T18:06:47;11.20;99.90
37974;DHT22;23796;51.458;7.000;2023-01-05T18:09:13;11.20;99.90
37974;DHT22;23796;51.458;7.000;2023-01-05T18:11:41;11.20;99.90
37974;DHT22;23796;51.458;7.000;2023-01-05T18:14:22;11.20;99.90
37974;DHT22;23796;51.458;7.000;2023-01-05T18:24:07;11.10;99.90
37974;DHT22;23796;51.458;7.000;2023-01-05T18:26:35;11.10;99.90
37974;DHT22;23796;51.458;7.000;2023-01-05T18:29:01;11.10;99.90
37974;DHT22;23796;51.458;7.000;2023-01-05T18:31:32;11.10;99.90
37974;DHT22;23796;51.458;7.000;2023-01-05T18:33:57;11.10;99.90
37974;DHT22;23796;51.458;7.000;2023-01-05T18:36:27;11.10;99.90
37974;DHT22;23796;51.458;7.000;2023-01-05T18:42:43;11.10;99.90
37974;DHT22;23796;51.458;7.000;2023-01-05T18:45:11;11.10;99.90
37974;DHT22;23796;51.458;7.000;2023-01-05T18:47:37;11.20;99.90
37974;DHT22;23796;51.458;7.000;2023-01-05T18:50:09;11.20;99.90
37974;DHT22;23796;51.458;7.000;2023-01-05T18:52:37;11.20;99.90
37974;DHT22;23796;51.458;7.000;2023-01-05T18:55:03;11.10;99.90
37974;DHT22;23796;51.458;7.000;2023-01-05T18:57:30;11.10;99.90
37974;DHT22;23796;51.458;7.000;2023-01-05T18:59:56;11.10;99.90
37974;DHT22;23796;51.458;7.000;2023-01-05T19:02:22;11.00;99.90
37974;DHT22;23796;51.458;7.000;2023-01-05T19:04:48;11.00;99.90
37974;DHT22;23796;51.458;7.000;2023-01-05T19:07:17;11.00;99.90
37974;DHT22;23796;51.458;7.000;2023-01-05T19:09:45;11.10;99.90
37974;DHT22;23796;51.458;7.000;2023-01-05T19:12:11;11.10;99.90
37974;DHT22;23796;51.458;7.000;2023-01-05T19:14:52;11.10;99.90
37974;DHT22;23796;51.458;7.000;2023-01-05T19:17:17;11.20;99.90
37974;DHT22;23796;51.458;7.000;2023-01-05T19:19:46;11.20;99.90
37974;DHT22;23796;51.458;7.000;2023-01-05T19:22:11;11.20;99.90
37974;DHT22;23796;51.458;7.000;2023-01-05T19:24:37;11.20;99.90
37974;DHT22;23796;51.458;7.000;2023-01-05T19:27:02;11.30;99.90
37974;DHT22;23796;51.458;7.000;2023-01-05T19:29:28;11.30;99.90
37974;DHT22;23796;51.458;7.000;2023-01-05T19:31:54;11.30;99.90
37974;DHT22;23796;51.458;7.000;2023-01-05T19:34:19;11.40;99.90
37974;DHT22;23796;51.458;7.000;2023-01-05T19:36:46;11.40;99.90
37974;DHT22;23796;51.458;7.000;2023-01-05T19:39:14;11.40;99.90
37974;DHT22;23796;51.458;7.000;2023-01-05T19:41:43;11.40;99.90
37974;DHT22;23796;51.458;7.000;2023-01-05T19:44:15;11.40;99.90
37974;DHT22;23796;51.458;7.000;2023-01-05T19:46:41;11.40;99.90
37974;DHT22;23796;51.458;7.000;2023-01-05T19:49:14;11.40;99.90
37974;DHT22;23796;51.458;7.000;2023-01-05T19:51:40;11.30;99.90
37974;DHT22;23796;51.458;7.000;2023-01-05T19:54:06;11.40;99.90
37974;DHT22;23796;51.458;7.000;2023-01-05T19:56:33;11.40;99.90
37974;DHT22;23796;51.458;7.000;2023-01-05T19:59:04;11.50;99.90
37974;DHT22;23796;51.458;7.000;2023-01-05T20:01:33;11.50;99.90
37974;DHT22;23796;51.458;7.000;2023-01-05T20:03:58;11.50;99.90
37974;DHT22;23796;51.458;7.000;2023-01-05T20:06:29;11.60;99.90
37974;DHT22;23796;51.458;7.000;2023-01-05T20:08:57;11.60;99.90
37974;DHT22;23796;51.458;7.000;2023-01-05T20:11:35;11.60;99.90
37974;DHT22;23796;51.458;7.000;2023-01-05T20:16:45;11.50;99.90
37974;DHT22;23796;51.458;7.000;2023-01-05T20:19:11;11.50;99.90
37974;DHT22;23796;51.458;7.000;2023-01-05T20:21:42;11.60;99.90